sensor_id;sensor_type;location;lat;lon;timestamp;pressure;altitude;pressure_sealevel;temperature;humidity
26563;BME280;14217;50.986;5.826;2022-12-18T00:04:56;102110.97;;;15.16;36.00
26563;BME280;14217;50.986;5.826;2022-12-18T00:09:58;102105.63;;;15.19;35.71
26563;BME280;14217;50.986;5.826;2022-12-18T00:15:00;102111.00;;;15.12;35.95
26563;BME280;14217;50.986;5.826;2022-12-18T00:20:02;102131.22;;;15.13;35.96
26563;BME280;14217;50.986;5.826;2022-12-18T00:25:05;102125.94;;;15.16;36.12
26563;BME280;14217;50.986;5.826;2022-12-18T00:30:07;102117.13;;;15.15;36.06
26563;BME280;14217;50.986;5.826;2022-12-18T00:35:10;102109.13;;;15.21;36.14
26563;BME280;14217;50.986;5.826;2022-12-18T00:40:11;102096.03;;;15.14;36.35
26563;BME280;14217;50.986;5.826;2022-12-18T00:45:13;102087.94;;;15.29;36.23
26563;BME280;14217;50.986;5.826;2022-12-18T00:50:15;102095.06;;;15.19;36.28
26563;BME280;14217;50.986;5.826;2022-12-18T00:55:17;102098.69;;;15.11;36.56
26563;BME280;14217;50.986;5.826;2022-12-18T01:00:20;102097.81;;;15.09;36.32
26563;BME280;14217;50.986;5.826;2022-12-18T01:05:22;102095.94;;;15.21;36.21
26563;BME280;14217;50.986;5.826;2022-12-18T01:10:25;102088.13;;;15.09;36.32
26563;BME280;14217;50.986;5.826;2022-12-18T01:15:27;102077.56;;;15.11;36.16
26563;BME280;14217;50.986;5.826;2022-12-18T01:20:29;102088.19;;;15.06;36.22
26563;BME280;14217;50.986;5.826;2022-12-18T01:25:31;102082.78;;;15.18;35.97
26563;BME280;14217;50.986;5.826;2022-12-18T01:30:33;102084.63;;;15.07;36.20
26563;BME280;14217;50.986;5.826;2022-12-18T01:35:40;102099.66;;;15.03;36.59
26563;BME280;14217;50.986;5.826;2022-12-18T01:40:43;102098.75;;;15.06;36.21
26563;BME280;14217;50.986;5.826;2022-12-18T01:45:45;102097.88;;;15.06;36.61
26563;BME280;14217;50.986;5.826;2022-12-18T01:50:47;102079.41;;;15.02;36.40
26563;BME280;14217;50.986;5.826;2022-12-18T01:55:53;102087.34;;;15.01;36.43
26563;BME280;14217;50.986;5.826;2022-12-18T02:00:56;102091.72;;;15.03;36.41
26563;BME280;14217;50.986;5.826;2022-12-18T02:11:22;102084.63;;;15.10;36.22
26563;BME280;14217;50.986;5.826;2022-12-18T02:16:45;102086.41;;;15.07;36.29
26563;BME280;14217;50.986;5.826;2022-12-18T02:22:03;102074.94;;;15.11;36.05
26563;BME280;14217;50.986;5.826;2022-12-18T02:27:09;102069.72;;;15.03;36.21
26563;BME280;14217;50.986;5.826;2022-12-18T02:32:20;102075.84;;;15.08;36.20
26563;BME280;14217;50.986;5.826;2022-12-18T02:37:26;102069.66;;;15.11;36.11
26563;BME280;14217;50.986;5.826;2022-12-18T02:42:29;102067.06;;;15.03;36.57
26563;BME280;14217;50.986;5.826;2022-12-18T02:47:34;102062.63;;;15.10;36.50
26563;BME280;14217;50.986;5.826;2022-12-18T02:53:04;102049.50;;;15.02;36.65
26563;BME280;14217;50.986;5.826;2022-12-18T03:03:38;102028.47;;;14.94;36.83
26563;BME280;14217;50.986;5.826;2022-12-18T03:08:46;102027.53;;;14.98;36.59
26563;BME280;14217;50.986;5.826;2022-12-18T03:13:56;102031.94;;;14.98;36.41
26563;BME280;14217;50.986;5.826;2022-12-18T03:19:01;102026.63;;;15.02;36.29
26563;BME280;14217;50.986;5.826;2022-12-18T03:24:07;102018.63;;;15.09;36.40
26563;BME280;14217;50.986;5.826;2022-12-18T03:29:37;102002.84;;;15.04;36.30
26563;BME280;14217;50.986;5.826;2022-12-18T03:34:41;102012.56;;;15.00;36.56
26563;BME280;14217;50.986;5.826;2022-12-18T03:39:44;102016.91;;;15.04;36.43
26563;BME280;14217;50.986;5.826;2022-12-18T03:55:45;102009.09;;;14.97;36.60
26563;BME280;14217;50.986;5.826;2022-12-18T04:00:48;102016.13;;;14.98;36.34
26563;BME280;14217;50.986;5.826;2022-12-18T04:05:52;102004.75;;;14.91;36.48
26563;BME280;14217;50.986;5.826;2022-12-18T04:10:56;102001.19;;;14.97;36.77
26563;BME280;14217;50.986;5.826;2022-12-18T04:15:58;101995.84;;;15.00;36.49
26563;BME280;14217;50.986;5.826;2022-12-18T04:21:00;101990.53;;;15.03;36.51
26563;BME280;14217;50.986;5.826;2022-12-18T04:26:02;101992.97;;;15.21;36.09
26563;BME280;14217;50.986;5.826;2022-12-18T04:31:05;101978.25;;;15.02;36.52
26563;BME280;14217;50.986;5.826;2022-12-18T04:36:07;101985.38;;;14.92;36.67
26563;BME280;14217;50.986;5.826;2022-12-18T04:41:09;101985.38;;;14.92;36.59
26563;BME280;14217;50.986;5.826;2022-12-18T04:46:11;102009.19;;;14.88;36.58
26563;BME280;14217;50.986;5.826;2022-12-18T04:51:13;102010.00;;;14.94;36.48
26563;BME280;14217;50.986;5.826;2022-12-18T04:56:15;102019.69;;;14.94;36.80
26563;BME280;14217;50.986;5.826;2022-12-18T05:01:18;102012.66;;;14.93;36.62
26563;BME280;14217;50.986;5.826;2022-12-18T05:06:20;102017.88;;;14.99;36.35
26563;BME280;14217;50.986;5.826;2022-12-18T05:11:22;102009.91;;;15.03;36.23
26563;BME280;14217;50.986;5.826;2022-12-18T05:16:24;102003.72;;;15.04;36.26
26563;BME280;14217;50.986;5.826;2022-12-18T05:21:26;101995.78;;;15.06;36.28
26563;BME280;14217;50.986;5.826;2022-12-18T05:26:28;102000.28;;;14.96;36.68
26563;BME280;14217;50.986;5.826;2022-12-18T05:31:30;102001.16;;;14.98;36.54
26563;BME280;14217;50.986;5.826;2022-12-18T05:36:39;102010.91;;;14.92;36.55
26563;BME280;14217;50.986;5.826;2022-12-18T05:41:41;102012.69;;;14.90;36.85
26563;BME280;14217;50.986;5.826;2022-12-18T05:46:43;102001.19;;;14.94;36.74
26563;BME280;14217;50.986;5.826;2022-12-18T05:51:45;102005.44;;;15.07;36.64
26563;BME280;14217;50.986;5.826;2022-12-18T05:56:47;102011.72;;;14.98;36.61
26563;BME280;14217;50.986;5.826;2022-12-18T06:01:50;101995.94;;;14.94;36.58
26563;BME280;14217;50.986;5.826;2022-12-18T06:06:52;102009.19;;;14.86;37.01
26563;BME280;14217;50.986;5.826;2022-12-18T06:11:53;101991.63;;;14.87;36.72
26563;BME280;14217;50.986;5.826;2022-12-18T06:16:55;101995.91;;;14.97;36.84
26563;BME280;14217;50.986;5.826;2022-12-18T06:21:57;101997.72;;;14.92;36.63
26563;BME280;14217;50.986;5.826;2022-12-18T06:27:00;102001.19;;;14.94;36.86
26563;BME280;14217;50.986;5.826;2022-12-18T06:32:02;102012.69;;;14.90;36.70
26563;BME280;14217;50.986;5.826;2022-12-18T06:37:04;102013.59;;;14.87;36.80
26563;BME280;14217;50.986;5.826;2022-12-18T06:42:06;102016.22;;;14.89;36.98
26563;BME280;14217;50.986;5.826;2022-12-18T06:47:08;102010.03;;;14.90;36.66
26563;BME280;14217;50.986;5.826;2022-12-18T06:52:10;102002.94;;;14.96;36.87
26563;BME280;14217;50.986;5.826;2022-12-18T06:57:12;102003.03;;;14.87;36.77
26563;BME280;14217;50.986;5.826;2022-12-18T07:02:14;101992.47;;;14.87;36.93
26563;BME280;14217;50.986;5.826;2022-12-18T07:07:16;101996.84;;;14.90;36.90
26563;BME280;14217;50.986;5.826;2022-12-18T07:12:18;101988.94;;;14.90;36.87
26563;BME280;14217;50.986;5.826;2022-12-18T07:17:20;101985.38;;;14.94;36.91
26563;BME280;14217;50.986;5.826;2022-12-18T07:22:22;101990.66;;;14.94;36.68
26563;BME280;14217;50.986;5.826;2022-12-18T07:27:24;101973.09;;;14.90;36.84
26563;BME280;14217;50.986;5.826;2022-12-18T07:32:26;101955.47;;;14.93;36.58
26563;BME280;14217;50.986;5.826;2022-12-18T07:37:28;101951.06;;;14.92;36.58
26563;BME280;14217;50.986;5.826;2022-12-18T07:42:31;101943.19;;;14.89;36.83
26563;BME280;14217;50.986;5.826;2022-12-18T07:47:36;101921.16;;;14.95;36.85
26563;BME280;14217;50.986;5.826;2022-12-18T07:52:38;101917.69;;;14.90;36.89
26563;BME280;14217;50.986;5.826;2022-12-18T07:57:40;101911.47;;;14.95;36.82
26563;BME280;14217;50.986;5.826;2022-12-18T08:02:52;101908.91;;;14.88;36.75
26563;BME280;14217;50.986;5.826;2022-12-18T08:07:55;101905.47;;;14.81;36.83
26563;BME280;14217;50.986;5.826;2022-12-18T08:12:57;101898.34;;;14.91;37.02
26563;BME280;14217;50.986;5.826;2022-12-18T08:18:05;101902.63;;;14.96;36.89
26563;BME280;14217;50.986;5.826;2022-12-18T08:23:13;101907.19;;;14.82;37.27
26563;BME280;14217;50.986;5.826;2022-12-18T08:28:15;101900.03;;;14.95;36.88
26563;BME280;14217;50.986;5.826;2022-12-18T08:33:17;101916.81;;;14.91;37.07
26563;BME280;14217;50.986;5.826;2022-12-18T08:38:19;101916.88;;;14.83;37.34
26563;BME280;14217;50.986;5.826;2022-12-18T08:43:21;101927.38;;;14.88;37.43
26563;BME280;14217;50.986;5.826;2022-12-18T08:48:42;101930.94;;;14.85;37.47
26563;BME280;14217;50.986;5.826;2022-12-18T08:53:44;101919.44;;;14.89;37.55
26563;BME280;14217;50.986;5.826;2022-12-18T08:58:46;101892.94;;;15.00;37.02
26563;BME280;14217;50.986;5.826;2022-12-18T09:03:49;101883.28;;;14.97;36.89
26563;BME280;14217;50.986;5.826;2022-12-18T09:08:52;101891.19;;;14.99;37.05
26563;BME280;14217;50.986;5.826;2022-12-18T09:13:55;101885.00;;;15.01;36.93
26563;BME280;14217;50.986;5.826;2022-12-18T09:18:58;101886.66;;;15.07;36.59
26563;BME280;14217;50.986;5.826;2022-12-18T09:24:01;101891.16;;;15.00;36.54
26563;BME280;14217;50.986;5.826;2022-12-18T09:29:04;101884.00;;;15.10;36.35
26563;BME280;14217;50.986;5.826;2022-12-18T09:34:06;101885.13;;;14.91;36.93
26563;BME280;14217;50.986;5.826;2022-12-18T09:39:08;101882.16;;;15.15;37.06
26563;BME280;14217;50.986;5.826;2022-12-18T09:49:32;101880.44;;;15.11;36.67
26563;BME280;14217;50.986;5.826;2022-12-18T09:54:41;101879.41;;;15.23;36.17
26563;BME280;14217;50.986;5.826;2022-12-18T09:59:48;101870.72;;;15.15;35.97
26563;BME280;14217;50.986;5.826;2022-12-18T10:10:06;101868.25;;;15.01;35.70
26563;BME280;14217;50.986;5.826;2022-12-18T10:15:25;101870.81;;;15.07;35.54
26563;BME280;14217;50.986;5.826;2022-12-18T10:20:39;101863.16;;;14.89;35.54
26563;BME280;14217;50.986;5.826;2022-12-18T10:31:05;101860.41;;;14.96;35.75
26563;BME280;14217;50.986;5.826;2022-12-18T10:36:07;101846.09;;;15.14;35.32
26563;BME280;14217;50.986;5.826;2022-12-18T10:46:24;101836.31;;;15.21;34.99
26563;BME280;14217;50.986;5.826;2022-12-18T10:51:29;101825.78;;;15.19;35.26
26563;BME280;14217;50.986;5.826;2022-12-18T10:56:34;101820.53;;;15.18;35.15
26563;BME280;14217;50.986;5.826;2022-12-18T11:01:48;101805.59;;;15.15;35.24
26563;BME280;14217;50.986;5.826;2022-12-18T11:06:59;101806.41;;;15.20;34.74
26563;BME280;14217;50.986;5.826;2022-12-18T11:12:04;101788.13;;;15.08;35.17
26563;BME280;14217;50.986;5.826;2022-12-18T11:17:21;101793.56;;;14.94;35.06
26563;BME280;14217;50.986;5.826;2022-12-18T11:22:32;101801.41;;;15.02;34.47
26563;BME280;14217;50.986;5.826;2022-12-18T11:27:35;101795.88;;;15.17;34.08
26563;BME280;14217;50.986;5.826;2022-12-18T11:32:39;101779.19;;;15.15;34.13
26563;BME280;14217;50.986;5.826;2022-12-18T11:37:47;101778.25;;;15.19;34.07
26563;BME280;14217;50.986;5.826;2022-12-18T11:42:59;101767.75;;;15.16;34.42
26563;BME280;14217;50.986;5.826;2022-12-18T11:48:25;101765.22;;;15.10;34.16
26563;BME280;14217;50.986;5.826;2022-12-18T11:53:29;101753.66;;;15.17;34.34
26563;BME280;14217;50.986;5.826;2022-12-18T11:58:45;101754.47;;;15.21;34.04
26563;BME280;14217;50.986;5.826;2022-12-18T12:30:22;101703.47;;;15.17;34.15
26563;BME280;14217;50.986;5.826;2022-12-18T12:41:09;101682.41;;;15.16;34.18
26563;BME280;14217;50.986;5.826;2022-12-18T12:46:36;101673.47;;;15.24;34.16
26563;BME280;14217;50.986;5.826;2022-12-18T12:51:44;101662.06;;;15.21;34.20
26563;BME280;14217;50.986;5.826;2022-12-18T13:07:32;101648.81;;;15.24;34.14
26563;BME280;14217;50.986;5.826;2022-12-18T13:23:26;101624.19;;;15.22;34.09
26563;BME280;14217;50.986;5.826;2022-12-18T13:33:47;101621.56;;;15.22;34.25
26563;BME280;14217;50.986;5.826;2022-12-18T13:44:37;101607.47;;;15.24;34.02
26563;BME280;14217;50.986;5.826;2022-12-18T13:49:43;101611.00;;;15.22;34.21
26563;BME280;14217;50.986;5.826;2022-12-18T13:54:52;101608.50;;;15.16;34.14
26563;BME280;14217;50.986;5.826;2022-12-18T13:59:57;101614.66;;;15.16;34.06
26563;BME280;14217;50.986;5.826;2022-12-18T14:04:59;101607.50;;;15.21;34.09
26563;BME280;14217;50.986;5.826;2022-12-18T14:10:02;101603.22;;;15.16;34.33
26563;BME280;14217;50.986;5.826;2022-12-18T14:15:40;101601.34;;;15.22;34.00
26563;BME280;14217;50.986;5.826;2022-12-18T14:20:44;101621.56;;;15.22;34.13
26563;BME280;14217;50.986;5.826;2022-12-18T14:25:53;101606.81;;;15.12;34.32
26563;BME280;14217;50.986;5.826;2022-12-18T14:30:55;101610.13;;;15.21;33.96
26563;BME280;14217;50.986;5.826;2022-12-18T14:41:10;101626.56;;;14.88;36.52
26563;BME280;14217;50.986;5.826;2022-12-18T14:51:35;101619.59;;;14.83;35.44
26563;BME280;14217;50.986;5.826;2022-12-18T14:56:46;101624.00;;;14.83;35.56
26563;BME280;14217;50.986;5.826;2022-12-18T15:07:21;101617.28;;;15.16;34.66
26563;BME280;14217;50.986;5.826;2022-12-18T15:12:34;101609.50;;;15.07;34.87
26563;BME280;14217;50.986;5.826;2022-12-18T15:17:36;101606.81;;;15.12;34.84
26563;BME280;14217;50.986;5.826;2022-12-18T15:22:38;101607.56;;;15.18;34.62
26563;BME280;14217;50.986;5.826;2022-12-18T15:27:46;101605.06;;;15.11;34.79
26563;BME280;14217;50.986;5.826;2022-12-18T15:32:49;101604.19;;;15.10;34.91
26563;BME280;14217;50.986;5.826;2022-12-18T15:37:52;101599.66;;;15.18;34.49
26563;BME280;14217;50.986;5.826;2022-12-18T15:42:54;101591.72;;;15.18;34.96
26563;BME280;14217;50.986;5.826;2022-12-18T15:48:21;101592.16;;;14.94;35.93
26563;BME280;14217;50.986;5.826;2022-12-18T15:53:24;101581.00;;;14.78;36.60
26563;BME280;14217;50.986;5.826;2022-12-18T15:58:28;101583.81;;;14.67;36.50
26563;BME280;14217;50.986;5.826;2022-12-18T16:03:30;101581.91;;;14.75;36.55
26563;BME280;14217;50.986;5.826;2022-12-18T16:08:32;101577.44;;;14.80;36.36
26563;BME280;14217;50.986;5.826;2022-12-18T16:13:34;101583.59;;;14.81;36.34
26563;BME280;14217;50.986;5.826;2022-12-18T16:18:36;101583.59;;;14.79;37.94
26563;BME280;14217;50.986;5.826;2022-12-18T16:23:38;101581.06;;;14.75;38.02
26563;BME280;14217;50.986;5.826;2022-12-18T16:28:41;101574.16;;;14.68;37.82
26563;BME280;14217;50.986;5.826;2022-12-18T16:33:48;101574.00;;;14.75;37.57
26563;BME280;14217;50.986;5.826;2022-12-18T16:38:50;101572.19;;;14.77;37.37
26563;BME280;14217;50.986;5.826;2022-12-18T16:43:53;101564.28;;;14.79;37.31
26563;BME280;14217;50.986;5.826;2022-12-18T16:48:57;101583.56;;;14.82;37.34
26563;BME280;14217;50.986;5.826;2022-12-18T16:54:00;101572.28;;;14.73;37.43
26563;BME280;14217;50.986;5.826;2022-12-18T16:59:10;101557.28;;;14.78;37.17
26563;BME280;14217;50.986;5.826;2022-12-18T17:04:12;101560.78;;;14.78;37.31
26563;BME280;14217;50.986;5.826;2022-12-18T17:09:15;101555.78;;;14.61;38.56
26563;BME280;14217;50.986;5.826;2022-12-18T17:14:19;101552.97;;;14.72;38.46
26563;BME280;14217;50.986;5.826;2022-12-18T17:19:23;101543.25;;;14.74;38.81
26563;BME280;14217;50.986;5.826;2022-12-18T17:24:25;101543.94;;;14.86;38.65
26563;BME280;14217;50.986;5.826;2022-12-18T17:29:35;101536.00;;;14.87;38.91
26563;BME280;14217;50.986;5.826;2022-12-18T17:34:39;101544.94;;;14.78;39.28
26563;BME280;14217;50.986;5.826;2022-12-18T17:39:41;101541.28;;;14.86;39.38
26563;BME280;14217;50.986;5.826;2022-12-18T17:44:43;101539.59;;;14.81;39.80
26563;BME280;14217;50.986;5.826;2022-12-18T17:49:45;101537.88;;;14.80;39.84
26563;BME280;14217;50.986;5.826;2022-12-18T17:54:47;101530.94;;;14.75;39.97
26563;BME280;14217;50.986;5.826;2022-12-18T17:59:49;101541.34;;;14.82;39.89
26563;BME280;14217;50.986;5.826;2022-12-18T18:04:51;101537.81;;;14.83;40.11
26563;BME280;14217;50.986;5.826;2022-12-18T18:09:53;101526.47;;;14.80;39.46
26563;BME280;14217;50.986;5.826;2022-12-18T18:14:55;101531.00;;;14.70;38.18
26563;BME280;14217;50.986;5.826;2022-12-18T18:19:57;101527.72;;;14.57;38.32
26563;BME280;14217;50.986;5.826;2022-12-18T18:24:59;101529.41;;;14.61;38.18
26563;BME280;14217;50.986;5.826;2022-12-18T18:30:03;101524.06;;;14.64;38.06
26563;BME280;14217;50.986;5.826;2022-12-18T18:35:06;101519.88;;;14.51;38.37
26563;BME280;14217;50.986;5.826;2022-12-18T18:40:25;101521.31;;;14.71;37.71
26563;BME280;14217;50.986;5.826;2022-12-18T18:45:29;101517.91;;;14.66;38.35
26563;BME280;14217;50.986;5.826;2022-12-18T18:50:31;101525.72;;;14.72;40.02
26563;BME280;14217;50.986;5.826;2022-12-18T18:55:33;101523.81;;;14.80;39.23
26563;BME280;14217;50.986;5.826;2022-12-18T19:00:35;101514.34;;;14.68;38.59
26563;BME280;14217;50.986;5.826;2022-12-18T19:05:37;101528.31;;;14.73;38.62
26563;BME280;14217;50.986;5.826;2022-12-18T19:10:43;101516.88;;;14.74;39.36
26563;BME280;14217;50.986;5.826;2022-12-18T19:15:46;101521.13;;;14.81;39.73
26563;BME280;14217;50.986;5.826;2022-12-18T19:20:56;101522.03;;;14.80;39.19
26563;BME280;14217;50.986;5.826;2022-12-18T19:26:03;101524.69;;;14.80;38.80
26563;BME280;14217;50.986;5.826;2022-12-18T19:31:25;101527.25;;;14.82;38.47
26563;BME280;14217;50.986;5.826;2022-12-18T19:36:37;101533.53;;;14.76;38.55
26563;BME280;14217;50.986;5.826;2022-12-18T19:41:40;101543.19;;;14.77;38.32
26563;BME280;14217;50.986;5.826;2022-12-18T19:46:43;101550.25;;;14.77;38.26
26563;BME280;14217;50.986;5.826;2022-12-18T19:51:46;101546.75;;;14.76;38.07
26563;BME280;14217;50.986;5.826;2022-12-18T19:56:51;101548.34;;;14.83;37.94
26563;BME280;14217;50.986;5.826;2022-12-18T20:01:53;101547.69;;;14.71;38.34
26563;BME280;14217;50.986;5.826;2022-12-18T20:06:55;101553.78;;;14.76;37.94
26563;BME280;14217;50.986;5.826;2022-12-18T20:11:58;101554.66;;;14.76;38.10
26563;BME280;14217;50.986;5.826;2022-12-18T20:17:00;101549.28;;;14.82;37.60
26563;BME280;14217;50.986;5.826;2022-12-18T20:22:02;101556.28;;;14.83;37.81
26563;BME280;14217;50.986;5.826;2022-12-18T20:27:04;101550.25;;;14.75;37.96
26563;BME280;14217;50.986;5.826;2022-12-18T20:32:13;101551.06;;;14.79;38.73
26563;BME280;14217;50.986;5.826;2022-12-18T20:37:15;101536.97;;;14.81;38.63
26563;BME280;14217;50.986;5.826;2022-12-18T20:42:17;101549.06;;;14.95;38.13
26563;BME280;14217;50.986;5.826;2022-12-18T20:47:19;101534.22;;;14.86;38.18
26563;BME280;14217;50.986;5.826;2022-12-18T20:52:21;101538.72;;;14.81;38.30
26563;BME280;14217;50.986;5.826;2022-12-18T20:57:24;101537.88;;;14.79;38.41
26563;BME280;14217;50.986;5.826;2022-12-18T21:02:26;101540.41;;;14.87;41.32
26563;BME280;14217;50.986;5.826;2022-12-18T21:07:28;101533.38;;;14.86;40.05
26563;BME280;14217;50.986;5.826;2022-12-18T21:12:30;101520.25;;;14.82;40.74
26563;BME280;14217;50.986;5.826;2022-12-18T21:17:37;101516.72;;;14.82;40.08
26563;BME280;14217;50.986;5.826;2022-12-18T21:22:45;101520.09;;;14.90;39.38
26563;BME280;14217;50.986;5.826;2022-12-18T21:27:47;101510.44;;;14.89;38.84
26563;BME280;14217;50.986;5.826;2022-12-18T21:32:49;101495.53;;;14.87;38.64
26563;BME280;14217;50.986;5.826;2022-12-18T21:37:51;101490.31;;;14.83;38.73
26563;BME280;14217;50.986;5.826;2022-12-18T21:42:53;101480.59;;;14.86;38.88
26563;BME280;14217;50.986;5.826;2022-12-18T21:48:18;101478.91;;;14.81;38.60
26563;BME280;14217;50.986;5.826;2022-12-18T21:53:19;101465.69;;;14.84;38.62
26563;BME280;14217;50.986;5.826;2022-12-18T21:58:22;101471.06;;;14.80;38.89
26563;BME280;14217;50.986;5.826;2022-12-18T22:03:23;101459.59;;;14.79;39.61
26563;BME280;14217;50.986;5.826;2022-12-18T22:08:26;101460.44;;;14.83;40.23
26563;BME280;14217;50.986;5.826;2022-12-18T22:13:28;101449.91;;;14.81;40.09
26563;BME280;14217;50.986;5.826;2022-12-18T22:18:30;101439.22;;;14.88;39.73
26563;BME280;14217;50.986;5.826;2022-12-18T22:23:32;101422.53;;;14.87;39.51
26563;BME280;14217;50.986;5.826;2022-12-18T22:28:34;101412.91;;;14.84;39.42
26563;BME280;14217;50.986;5.826;2022-12-18T22:33:55;101395.22;;;14.90;39.41
26563;BME280;14217;50.986;5.826;2022-12-18T22:38:57;101394.44;;;14.84;39.48
26563;BME280;14217;50.986;5.826;2022-12-18T22:43:59;101387.19;;;14.94;38.78
26563;BME280;14217;50.986;5.826;2022-12-18T22:49:01;101375.03;;;14.89;39.18
26563;BME280;14217;50.986;5.826;2022-12-18T22:54:03;101372.41;;;14.87;38.78
26563;BME280;14217;50.986;5.826;2022-12-18T22:59:05;101352.75;;;15.00;38.45
26563;BME280;14217;50.986;5.826;2022-12-18T23:04:08;101354.78;;;14.88;38.90
26563;BME280;14217;50.986;5.826;2022-12-18T23:09:18;101350.97;;;15.01;38.41
26563;BME280;14217;50.986;5.826;2022-12-18T23:14:21;101341.31;;;15.01;38.60
26563;BME280;14217;50.986;5.826;2022-12-18T23:19:23;101348.16;;;15.10;38.18
26563;BME280;14217;50.986;5.826;2022-12-18T23:24:26;101334.06;;;15.11;38.29
26563;BME280;14217;50.986;5.826;2022-12-18T23:29:31;101320.56;;;15.23;37.77
26563;BME280;14217;50.986;5.826;2022-12-18T23:34:33;101306.44;;;15.26;37.86
26563;BME280;14217;50.986;5.826;2022-12-18T23:39:35;101315.16;;;15.30;37.83
26563;BME280;14217;50.986;5.826;2022-12-18T23:44:36;101291.56;;;15.22;37.89
26563;BME280;14217;50.986;5.826;2022-12-18T23:49:38;101289.81;;;15.22;37.94
26563;BME280;14217;50.986;5.826;2022-12-18T23:54:41;101286.81;;;15.38;37.58
26563;BME280;14217;50.986;5.826;2022-12-18T23:59:43;101285.97;;;15.36;37.63
